sensor_id;sensor_type;location;lat;lon;timestamp;P1;durP1;ratioP1;P2;durP2;ratioP2
77148;SDS011;66122;47.130;16.844;2023-06-04T00:04:49;4.67;;;3.10;;
77148;SDS011;66122;47.130;16.844;2023-06-04T00:14:52;7.10;;;3.73;;
77148;SDS011;66122;47.130;16.844;2023-06-04T00:24:55;7.25;;;3.58;;
77148;SDS011;66122;47.130;16.844;2023-06-04T00:34:57;5.70;;;3.27;;
77148;SDS011;66122;47.130;16.844;2023-06-04T00:45:00;7.40;;;3.57;;
77148;SDS011;66122;47.130;16.844;2023-06-04T00:55:03;6.50;;;3.78;;
77148;SDS011;66122;47.130;16.844;2023-06-04T01:05:14;7.23;;;3.27;;
77148;SDS011;66122;47.130;16.844;2023-06-04T01:15:26;5.80;;;3.50;;
77148;SDS011;66122;47.130;16.844;2023-06-04T01:25:32;7.30;;;3.67;;
77148;SDS011;66122;47.130;16.844;2023-06-04T01:35:38;5.93;;;3.37;;
77148;SDS011;66122;47.130;16.844;2023-06-04T01:45:41;9.83;;;3.47;;
77148;SDS011;66122;47.130;16.844;2023-06-04T01:55:44;7.77;;;2.97;;
77148;SDS011;66122;47.130;16.844;2023-06-04T02:05:47;7.38;;;3.40;;
77148;SDS011;66122;47.130;16.844;2023-06-04T02:15:52;7.37;;;4.10;;
77148;SDS011;66122;47.130;16.844;2023-06-04T02:25:54;5.53;;;3.40;;
77148;SDS011;66122;47.130;16.844;2023-06-04T02:35:57;5.70;;;3.40;;
77148;SDS011;66122;47.130;16.844;2023-06-04T02:45:59;6.80;;;3.60;;
77148;SDS011;66122;47.130;16.844;2023-06-04T02:56:02;7.30;;;4.17;;
77148;SDS011;66122;47.130;16.844;2023-06-04T03:06:05;7.80;;;3.83;;
77148;SDS011;66122;47.130;16.844;2023-06-04T03:16:07;10.67;;;3.70;;
77148;SDS011;66122;47.130;16.844;2023-06-04T03:26:12;5.23;;;3.60;;
77148;SDS011;66122;47.130;16.844;2023-06-04T03:36:16;6.47;;;3.37;;
77148;SDS011;66122;47.130;16.844;2023-06-04T03:46:18;9.18;;;3.78;;
77148;SDS011;66122;47.130;16.844;2023-06-04T03:56:21;8.40;;;4.03;;
77148;SDS011;66122;47.130;16.844;2023-06-04T04:06:25;8.27;;;4.43;;
77148;SDS011;66122;47.130;16.844;2023-06-04T04:16:28;8.80;;;4.22;;
77148;SDS011;66122;47.130;16.844;2023-06-04T04:26:32;6.73;;;4.23;;
77148;SDS011;66122;47.130;16.844;2023-06-04T04:36:35;7.83;;;4.30;;
77148;SDS011;66122;47.130;16.844;2023-06-04T04:46:39;7.60;;;4.20;;
77148;SDS011;66122;47.130;16.844;2023-06-04T04:56:42;8.23;;;4.70;;
77148;SDS011;66122;47.130;16.844;2023-06-04T05:06:45;9.53;;;4.70;;
77148;SDS011;66122;47.130;16.844;2023-06-04T05:16:48;9.13;;;5.37;;
77148;SDS011;66122;47.130;16.844;2023-06-04T05:26:52;9.65;;;4.95;;
77148;SDS011;66122;47.130;16.844;2023-06-04T05:36:56;8.27;;;4.90;;
77148;SDS011;66122;47.130;16.844;2023-06-04T05:47:00;7.57;;;3.83;;
77148;SDS011;66122;47.130;16.844;2023-06-04T05:57:05;6.38;;;3.78;;
77148;SDS011;66122;47.130;16.844;2023-06-04T06:07:08;5.70;;;3.83;;
77148;SDS011;66122;47.130;16.844;2023-06-04T06:17:12;8.00;;;3.90;;
77148;SDS011;66122;47.130;16.844;2023-06-04T06:27:15;6.07;;;3.72;;
77148;SDS011;66122;47.130;16.844;2023-06-04T06:37:19;6.00;;;3.00;;
77148;SDS011;66122;47.130;16.844;2023-06-04T06:47:21;4.07;;;2.50;;
77148;SDS011;66122;47.130;16.844;2023-06-04T06:57:24;4.77;;;2.97;;
77148;SDS011;66122;47.130;16.844;2023-06-04T07:07:26;5.53;;;2.90;;
77148;SDS011;66122;47.130;16.844;2023-06-04T07:17:29;6.67;;;3.23;;
77148;SDS011;66122;47.130;16.844;2023-06-04T07:27:33;7.63;;;2.77;;
77148;SDS011;66122;47.130;16.844;2023-06-04T07:37:36;4.63;;;2.88;;
77148;SDS011;66122;47.130;16.844;2023-06-04T07:47:38;4.70;;;2.40;;
77148;SDS011;66122;47.130;16.844;2023-06-04T07:57:41;4.13;;;1.73;;
77148;SDS011;66122;47.130;16.844;2023-06-04T08:07:44;3.55;;;1.70;;
77148;SDS011;66122;47.130;16.844;2023-06-04T08:17:46;3.03;;;1.20;;
77148;SDS011;66122;47.130;16.844;2023-06-04T08:27:49;4.70;;;1.30;;
77148;SDS011;66122;47.130;16.844;2023-06-04T08:37:51;3.20;;;1.47;;
77148;SDS011;66122;47.130;16.844;2023-06-04T08:47:54;7.30;;;1.70;;
77148;SDS011;66122;47.130;16.844;2023-06-04T08:57:57;3.00;;;1.27;;
77148;SDS011;66122;47.130;16.844;2023-06-04T09:08:01;3.17;;;1.47;;
77148;SDS011;66122;47.130;16.844;2023-06-04T09:18:06;3.90;;;1.42;;
77148;SDS011;66122;47.130;16.844;2023-06-04T09:28:09;4.53;;;1.43;;
77148;SDS011;66122;47.130;16.844;2023-06-04T09:38:12;4.27;;;1.13;;
77148;SDS011;66122;47.130;16.844;2023-06-04T09:48:20;4.22;;;1.75;;
77148;SDS011;66122;47.130;16.844;2023-06-04T09:58:27;3.50;;;1.57;;
77148;SDS011;66122;47.130;16.844;2023-06-04T10:08:31;3.47;;;1.60;;
77148;SDS011;66122;47.130;16.844;2023-06-04T10:18:35;4.13;;;1.58;;
77148;SDS011;66122;47.130;16.844;2023-06-04T10:28:37;2.97;;;1.63;;
77148;SDS011;66122;47.130;16.844;2023-06-04T10:38:44;3.80;;;1.77;;
77148;SDS011;66122;47.130;16.844;2023-06-04T10:48:51;4.72;;;1.50;;
77148;SDS011;66122;47.130;16.844;2023-06-04T10:58:55;3.07;;;1.60;;
77148;SDS011;66122;47.130;16.844;2023-06-04T11:09:02;3.37;;;1.60;;
77148;SDS011;66122;47.130;16.844;2023-06-04T11:19:05;5.32;;;1.95;;
77148;SDS011;66122;47.130;16.844;2023-06-04T11:29:11;4.87;;;2.07;;
77148;SDS011;66122;47.130;16.844;2023-06-04T11:39:19;3.67;;;1.67;;
77148;SDS011;66122;47.130;16.844;2023-06-04T11:49:24;3.93;;;2.10;;
77148;SDS011;66122;47.130;16.844;2023-06-04T11:59:28;3.37;;;1.77;;
77148;SDS011;66122;47.130;16.844;2023-06-04T12:09:32;4.18;;;2.05;;
77148;SDS011;66122;47.130;16.844;2023-06-04T12:19:45;3.23;;;2.10;;
77148;SDS011;66122;47.130;16.844;2023-06-04T12:30:01;4.23;;;2.13;;
77148;SDS011;66122;47.130;16.844;2023-06-04T12:40:06;3.03;;;2.00;;
77148;SDS011;66122;47.130;16.844;2023-06-04T12:50:13;3.43;;;2.30;;
77148;SDS011;66122;47.130;16.844;2023-06-04T13:00:15;5.67;;;2.47;;
77148;SDS011;66122;47.130;16.844;2023-06-04T13:10:19;4.17;;;2.10;;
77148;SDS011;66122;47.130;16.844;2023-06-04T13:20:23;3.27;;;2.27;;
77148;SDS011;66122;47.130;16.844;2023-06-04T13:30:25;5.18;;;2.40;;
77148;SDS011;66122;47.130;16.844;2023-06-04T13:40:28;3.93;;;2.10;;
77148;SDS011;66122;47.130;16.844;2023-06-04T13:50:33;4.07;;;2.37;;
77148;SDS011;66122;47.130;16.844;2023-06-04T14:00:37;3.50;;;2.40;;
77148;SDS011;66122;47.130;16.844;2023-06-04T14:10:39;5.93;;;2.50;;
77148;SDS011;66122;47.130;16.844;2023-06-04T14:20:43;3.37;;;2.30;;
77148;SDS011;66122;47.130;16.844;2023-06-04T14:30:46;5.07;;;2.43;;
77148;SDS011;66122;47.130;16.844;2023-06-04T14:40:48;4.00;;;2.17;;
77148;SDS011;66122;47.130;16.844;2023-06-04T14:50:51;6.70;;;2.55;;
77148;SDS011;66122;47.130;16.844;2023-06-04T15:01:01;6.63;;;2.43;;
77148;SDS011;66122;47.130;16.844;2023-06-04T15:11:06;11.47;;;2.90;;
77148;SDS011;66122;47.130;16.844;2023-06-04T15:21:08;5.03;;;2.42;;
77148;SDS011;66122;47.130;16.844;2023-06-04T15:31:12;4.97;;;3.03;;
77148;SDS011;66122;47.130;16.844;2023-06-04T15:41:14;4.27;;;2.60;;
77148;SDS011;66122;47.130;16.844;2023-06-04T15:51:17;3.78;;;2.10;;
77148;SDS011;66122;47.130;16.844;2023-06-04T16:01:19;4.53;;;1.97;;
77148;SDS011;66122;47.130;16.844;2023-06-04T16:11:22;4.30;;;2.20;;
77148;SDS011;66122;47.130;16.844;2023-06-04T16:21:27;5.75;;;2.13;;
77148;SDS011;66122;47.130;16.844;2023-06-04T16:31:30;3.83;;;1.87;;
77148;SDS011;66122;47.130;16.844;2023-06-04T16:41:33;4.27;;;2.00;;
77148;SDS011;66122;47.130;16.844;2023-06-04T16:51:37;4.82;;;2.08;;
77148;SDS011;66122;47.130;16.844;2023-06-04T17:01:39;4.10;;;1.90;;
77148;SDS011;66122;47.130;16.844;2023-06-04T17:11:42;5.47;;;2.60;;
77148;SDS011;66122;47.130;16.844;2023-06-04T17:21:45;4.97;;;2.20;;
77148;SDS011;66122;47.130;16.844;2023-06-04T17:31:48;4.60;;;2.27;;
77148;SDS011;66122;47.130;16.844;2023-06-04T17:41:51;4.67;;;2.70;;
77148;SDS011;66122;47.130;16.844;2023-06-04T17:51:54;5.20;;;2.60;;
77148;SDS011;66122;47.130;16.844;2023-06-04T18:01:56;6.30;;;2.90;;
77148;SDS011;66122;47.130;16.844;2023-06-04T18:11:59;8.50;;;3.37;;
77148;SDS011;66122;47.130;16.844;2023-06-04T18:22:02;6.17;;;3.70;;
77148;SDS011;66122;47.130;16.844;2023-06-04T18:32:05;7.72;;;3.70;;
77148;SDS011;66122;47.130;16.844;2023-06-04T18:42:08;7.17;;;3.80;;
77148;SDS011;66122;47.130;16.844;2023-06-04T18:52:31;5.20;;;3.43;;
77148;SDS011;66122;47.130;16.844;2023-06-04T19:02:40;6.13;;;4.03;;
77148;SDS011;66122;47.130;16.844;2023-06-04T19:12:43;8.57;;;3.73;;
77148;SDS011;66122;47.130;16.844;2023-06-04T19:22:47;6.67;;;4.10;;
77148;SDS011;66122;47.130;16.844;2023-06-04T19:32:52;8.07;;;4.30;;
77148;SDS011;66122;47.130;16.844;2023-06-04T19:42:55;8.82;;;4.20;;
77148;SDS011;66122;47.130;16.844;2023-06-04T19:52:59;7.00;;;5.10;;
77148;SDS011;66122;47.130;16.844;2023-06-04T20:03:02;6.93;;;4.23;;
77148;SDS011;66122;47.130;16.844;2023-06-04T20:13:05;6.80;;;4.60;;
77148;SDS011;66122;47.130;16.844;2023-06-04T20:23:08;9.63;;;5.07;;
77148;SDS011;66122;47.130;16.844;2023-06-04T20:33:11;12.80;;;6.10;;
77148;SDS011;66122;47.130;16.844;2023-06-04T20:43:14;12.27;;;5.18;;
77148;SDS011;66122;47.130;16.844;2023-06-04T20:53:18;8.67;;;5.30;;
77148;SDS011;66122;47.130;16.844;2023-06-04T21:03:21;7.63;;;4.90;;
77148;SDS011;66122;47.130;16.844;2023-06-04T21:13:25;7.67;;;4.67;;
77148;SDS011;66122;47.130;16.844;2023-06-04T21:23:28;7.53;;;4.95;;
77148;SDS011;66122;47.130;16.844;2023-06-04T21:33:31;7.33;;;4.60;;
77148;SDS011;66122;47.130;16.844;2023-06-04T21:43:34;7.90;;;4.30;;
77148;SDS011;66122;47.130;16.844;2023-06-04T21:53:37;10.80;;;5.43;;
77148;SDS011;66122;47.130;16.844;2023-06-04T22:03:39;12.00;;;5.20;;
77148;SDS011;66122;47.130;16.844;2023-06-04T22:13:43;8.73;;;4.93;;
77148;SDS011;66122;47.130;16.844;2023-06-04T22:23:45;7.65;;;4.75;;
77148;SDS011;66122;47.130;16.844;2023-06-04T22:33:48;8.93;;;4.60;;
77148;SDS011;66122;47.130;16.844;2023-06-04T22:43:51;13.97;;;5.20;;
77148;SDS011;66122;47.130;16.844;2023-06-04T22:53:54;6.27;;;3.97;;
77148;SDS011;66122;47.130;16.844;2023-06-04T23:03:57;7.43;;;4.57;;
77148;SDS011;66122;47.130;16.844;2023-06-04T23:14:00;10.07;;;4.87;;
77148;SDS011;66122;47.130;16.844;2023-06-04T23:24:03;7.63;;;4.30;;
77148;SDS011;66122;47.130;16.844;2023-06-04T23:34:06;8.13;;;3.80;;
77148;SDS011;66122;47.130;16.844;2023-06-04T23:44:09;9.13;;;4.57;;
77148;SDS011;66122;47.130;16.844;2023-06-04T23:54:11;8.23;;;4.10;;
